Pistol River, Oregon
Current Conditions -  °F | °C
As of 10:56 AM on Tuesday 21 Oct 2014 (Local Time) from KBOK Reporting Station
Haze Haze  
Wind Chill: 14°   Ceiling: 2100
Heat Index: 14°   Visibility: 6mi
Dew Point: 11°   Wind: 7mph
Humidity: 84%   Direction: 150°SSE
Pressure: 30.11"   Gusts: NA
Location:  42.5771°N, 124.359°W
Report Text: KBOK 211756Z AUTO 15006KT 6SM HZ OVC021 14/11 A3011 RMK AO2 51010 60018 T01380111 10138 20116 SLP196
Loading
Personal Weather Stations






























Interactive Weather Map
Tropical Storm Tracking
New forecast layout! Learn more

10-Day Weather Forecast

Advertisements
Track Severe Weather on mobile